createdAt,value
2018-02-27T00:02:03.710Z,-11.73
2018-02-27T00:04:31.210Z,-11.74
2018-02-27T00:06:58.795Z,-11.70
2018-02-27T00:09:26.358Z,-11.74
2018-02-27T00:11:53.903Z,-11.77
2018-02-27T00:14:21.377Z,-11.76
2018-02-27T00:16:48.882Z,-11.79
2018-02-27T00:19:16.352Z,-11.79
2018-02-27T00:21:43.852Z,-11.82
2018-02-27T00:24:11.316Z,-11.83
2018-02-27T00:26:38.803Z,-11.79
2018-02-27T00:29:06.387Z,-11.82
2018-02-27T00:31:33.870Z,-11.84
2018-02-27T00:34:01.358Z,-11.84
2018-02-27T00:36:28.829Z,-11.87
2018-02-27T00:38:56.324Z,-11.84
2018-02-27T00:41:23.812Z,-11.82
2018-02-27T00:43:51.333Z,-11.83
2018-02-27T00:46:18.832Z,-11.88
2018-02-27T00:48:46.410Z,-11.96
2018-02-27T00:51:14.076Z,-11.97
2018-02-27T00:53:41.548Z,-11.99
2018-02-27T00:56:09.141Z,-11.96
2018-02-27T00:58:36.620Z,-12.00
2018-02-27T01:01:04.181Z,-12.11
2018-02-27T01:03:31.676Z,-12.08
2018-02-27T01:05:59.224Z,-12.10
2018-02-27T01:08:26.784Z,-12.11
2018-02-27T01:10:54.377Z,-12.14
2018-02-27T01:13:21.847Z,-12.17
2018-02-27T01:15:49.403Z,-12.15
2018-02-27T01:18:16.972Z,-12.16
2018-02-27T01:20:44.545Z,-12.18
2018-02-27T01:23:12.013Z,-12.19
2018-02-27T01:25:39.492Z,-12.22
2018-02-27T01:28:06.964Z,-12.28
2018-02-27T01:30:34.545Z,-12.33
2018-02-27T01:33:02.112Z,-12.33
2018-02-27T01:38:09.650Z,-12.43
2018-02-27T01:40:37.338Z,-12.37
2018-02-27T01:43:04.892Z,-12.47
2018-02-27T01:45:32.354Z,-12.51
2018-02-27T01:47:59.844Z,-12.57
2018-02-27T01:50:27.423Z,-12.60
2018-02-27T01:52:54.908Z,-12.63
2018-02-27T01:55:22.378Z,-12.65
2018-02-27T01:57:49.939Z,-12.65
2018-02-27T02:00:17.411Z,-12.63
2018-02-27T02:02:44.898Z,-12.67
2018-02-27T02:05:12.369Z,-12.69
2018-02-27T02:07:39.924Z,-12.71
2018-02-27T02:10:07.396Z,-12.72
2018-02-27T02:12:34.888Z,-12.75
2018-02-27T02:15:02.368Z,-12.86
2018-02-27T02:17:29.826Z,-12.82
2018-02-27T02:19:57.302Z,-12.78
2018-02-27T02:22:24.778Z,-12.85
2018-02-27T02:24:52.321Z,-12.84
2018-02-27T02:27:19.897Z,-12.88
2018-02-27T02:29:47.377Z,-12.91
2018-02-27T02:32:14.848Z,-12.93
2018-02-27T02:34:42.342Z,-12.94
2018-02-27T02:37:09.828Z,-12.95
2018-02-27T02:39:37.579Z,-12.98
2018-02-27T02:42:23.845Z,-12.98
2018-02-27T02:44:51.334Z,-13.02
2018-02-27T02:47:18.858Z,-13.06
2018-02-27T02:49:46.324Z,-13.07
2018-02-27T02:52:13.811Z,-13.10
2018-02-27T02:54:41.268Z,-13.09
2018-02-27T02:57:08.750Z,-13.14
2018-02-27T02:59:36.258Z,-13.14
2018-02-27T03:02:03.745Z,-13.12
2018-02-27T03:04:31.306Z,-13.12
2018-02-27T03:06:58.789Z,-13.17
2018-02-27T03:09:26.253Z,-13.13
2018-02-27T03:11:53.761Z,-13.15
2018-02-27T03:14:21.293Z,-13.23
2018-02-27T03:16:48.810Z,-13.25
2018-02-27T03:19:16.283Z,-13.19
2018-02-27T03:21:43.801Z,-13.13
2018-02-27T03:24:11.285Z,-13.18
2018-02-27T03:29:12.614Z,-13.19
2018-02-27T03:31:40.148Z,-13.21
2018-02-27T03:34:07.669Z,-13.26
2018-02-27T03:36:35.149Z,-13.26
2018-02-27T03:39:02.620Z,-13.26
2018-02-27T03:41:30.158Z,-13.26
2018-02-27T03:43:57.701Z,-13.30
2018-02-27T03:46:25.287Z,-13.28
2018-02-27T03:48:52.950Z,-13.30
2018-02-27T03:51:20.498Z,-13.35
2018-02-27T03:53:47.986Z,-13.37
2018-02-27T03:56:15.450Z,-13.37
2018-02-27T03:58:43.023Z,-13.33
2018-02-27T04:01:10.513Z,-13.29
2018-02-27T04:03:37.996Z,-13.30
2018-02-27T04:06:05.472Z,-13.36
2018-02-27T04:08:33.011Z,-13.33
2018-02-27T04:11:00.596Z,-13.33
2018-02-27T04:13:28.157Z,-13.34
2018-02-27T04:15:55.724Z,-13.32
2018-02-27T04:18:23.202Z,-13.36
2018-02-27T04:20:50.712Z,-13.38
2018-02-27T04:23:18.184Z,-13.39
2018-02-27T04:25:45.686Z,-13.38
2018-02-27T04:28:13.183Z,-13.37
2018-02-27T04:30:40.666Z,-13.37
2018-02-27T04:33:08.134Z,-13.40
2018-02-27T04:35:35.701Z,-13.45
2018-02-27T04:38:03.179Z,-13.48
2018-02-27T04:40:30.687Z,-13.46
2018-02-27T04:42:58.251Z,-13.49
2018-02-27T04:45:25.799Z,-13.46
2018-02-27T04:47:53.296Z,-13.33
2018-02-27T04:50:20.826Z,-13.44
2018-02-27T04:52:48.402Z,-13.46
2018-02-27T04:55:15.866Z,-13.42
2018-02-27T04:57:43.343Z,-13.45
2018-02-27T05:00:10.806Z,-13.46
2018-02-27T05:02:38.306Z,-13.54
2018-02-27T05:05:05.774Z,-13.46
2018-02-27T05:07:33.326Z,-13.47
2018-02-27T05:10:00.815Z,-13.59
2018-02-27T05:12:28.297Z,-13.43
2018-02-27T05:14:55.782Z,-13.42
2018-02-27T05:17:23.273Z,-13.52
2018-02-27T05:19:50.758Z,-13.51
2018-02-27T05:22:18.266Z,-13.43
2018-02-27T05:24:45.832Z,-13.50
2018-02-27T05:27:13.357Z,-13.56
2018-02-27T05:29:40.835Z,-13.55
2018-02-27T05:32:08.331Z,-13.63
2018-02-27T05:34:35.847Z,-13.62
2018-02-27T05:37:03.403Z,-13.62
2018-02-27T05:39:30.968Z,-12.46
2018-02-27T05:41:58.439Z,-12.07
2018-02-27T05:44:25.939Z,-12.24
2018-02-27T05:46:53.488Z,-12.14
2018-02-27T05:49:21.001Z,-12.27
2018-02-27T05:51:48.478Z,-12.30
2018-02-27T05:54:15.981Z,-12.78
2018-02-27T05:56:43.448Z,-13.00
2018-02-27T05:59:10.913Z,-13.27
2018-02-27T06:01:38.500Z,-13.46
2018-02-27T06:04:05.970Z,-13.49
2018-02-27T06:06:33.455Z,-13.54
2018-02-27T06:09:01.014Z,-13.55
2018-02-27T06:11:28.501Z,-13.61
2018-02-27T06:13:55.970Z,-13.59
2018-02-27T06:16:23.452Z,-13.55
2018-02-27T06:18:50.926Z,-13.53
2018-02-27T06:21:18.465Z,-13.40
2018-02-27T06:23:45.987Z,-13.36
2018-02-27T06:26:13.449Z,-13.16
2018-02-27T06:28:40.986Z,-12.89
2018-02-27T06:31:08.469Z,-12.61
2018-02-27T06:33:35.951Z,-12.42
2018-02-27T06:36:03.438Z,-11.71
2018-02-27T06:38:30.959Z,-11.24
2018-02-27T06:40:58.552Z,-10.69
2018-02-27T06:43:26.122Z,-10.41
2018-02-27T06:45:53.609Z,-9.83
2018-02-27T06:48:21.142Z,-9.51
2018-02-27T06:50:48.613Z,-9.42
2018-02-27T06:53:16.191Z,-8.55
2018-02-27T06:55:43.672Z,-8.31
2018-02-27T06:58:11.240Z,-8.30
2018-02-27T07:00:38.702Z,-7.68
2018-02-27T07:03:06.184Z,-7.77
2018-02-27T07:05:33.650Z,-7.62
2018-02-27T07:08:01.134Z,-7.51
2018-02-27T07:10:28.693Z,-7.50
2018-02-27T07:12:56.163Z,-7.53
2018-02-27T07:15:23.668Z,-7.02
2018-02-27T07:17:51.182Z,-6.64
2018-02-27T07:20:18.655Z,-6.55
2018-02-27T07:22:46.126Z,-6.20
2018-02-27T07:25:13.616Z,-6.37
2018-02-27T07:27:41.163Z,-6.53
2018-02-27T07:30:08.638Z,-6.40
2018-02-27T07:32:36.097Z,-5.85
2018-02-27T07:35:03.583Z,-5.61
2018-02-27T07:37:31.087Z,-5.97
2018-02-27T07:39:58.661Z,-5.48
2018-02-27T07:42:26.170Z,-5.59
2018-02-27T07:44:53.665Z,-5.21
2018-02-27T07:47:21.273Z,-5.13
2018-02-27T07:49:48.761Z,-4.98
2018-02-27T07:52:16.221Z,-4.54
2018-02-27T07:54:43.773Z,-4.63
2018-02-27T07:57:11.252Z,-4.29
2018-02-27T07:59:38.728Z,-4.00
2018-02-27T08:02:06.198Z,-4.09
2018-02-27T08:04:33.757Z,-3.13
2018-02-27T08:07:01.337Z,-3.10
2018-02-27T08:09:28.796Z,-2.99
2018-02-27T08:11:56.269Z,-2.48
2018-02-27T08:14:23.772Z,-2.75
2018-02-27T08:16:51.341Z,-2.39
2018-02-27T08:19:18.829Z,-2.03
2018-02-27T08:21:46.305Z,-2.20
2018-02-27T08:24:13.765Z,-1.84
2018-02-27T08:26:41.248Z,-2.28
2018-02-27T08:29:08.784Z,-2.09
2018-02-27T08:31:36.345Z,-2.14
2018-02-27T08:34:03.825Z,-2.64
2018-02-27T08:36:31.391Z,-2.44
2018-02-27T08:38:58.993Z,-2.08
2018-02-27T08:41:26.460Z,-2.05
2018-02-27T08:43:53.958Z,-1.89
2018-02-27T08:46:21.433Z,-2.16
2018-02-27T08:48:48.947Z,-2.30
2018-02-27T08:51:16.407Z,-2.10
2018-02-27T08:53:43.875Z,-2.22
2018-02-27T08:56:11.374Z,-3.03
2018-02-27T08:58:38.854Z,-3.03
2018-02-27T09:01:06.324Z,-2.42
2018-02-27T09:03:33.790Z,-1.86
2018-02-27T09:06:01.351Z,-2.14
2018-02-27T09:08:28.923Z,-2.16
2018-02-27T09:10:56.497Z,-1.82
2018-02-27T09:13:23.989Z,-1.79
2018-02-27T09:15:51.543Z,-1.46
2018-02-27T09:18:19.030Z,-1.01
2018-02-27T09:20:46.519Z,-0.32
2018-02-27T09:23:14.044Z,0.12
2018-02-27T09:25:41.536Z,0.71
2018-02-27T09:28:09.005Z,-0.17
2018-02-27T09:30:36.471Z,-0.89
2018-02-27T09:33:03.957Z,-0.55
2018-02-27T09:35:31.419Z,-0.42
2018-02-27T09:37:58.897Z,-0.52
2018-02-27T09:40:26.371Z,-0.82
2018-02-27T09:42:53.866Z,-1.44
2018-02-27T09:45:21.414Z,-0.55
2018-02-27T09:47:48.908Z,-0.99
2018-02-27T09:50:16.438Z,-0.87
2018-02-27T09:52:43.913Z,-1.45
2018-02-27T09:55:11.382Z,-1.30
2018-02-27T09:57:38.871Z,-1.61
2018-02-27T10:00:06.322Z,-1.03
2018-02-27T10:02:33.885Z,-0.79
2018-02-27T10:05:01.353Z,-0.92
2018-02-27T10:07:28.822Z,-0.72
2018-02-27T10:09:56.398Z,0.08
2018-02-27T10:12:23.978Z,-0.26
2018-02-27T10:14:51.494Z,-0.39
2018-02-27T10:17:18.961Z,-0.90
2018-02-27T10:19:46.499Z,-1.32
2018-02-27T10:22:14.030Z,-1.02
2018-02-27T10:24:41.557Z,-0.76
2018-02-27T10:27:09.019Z,-0.61
2018-02-27T10:29:36.588Z,-0.18
2018-02-27T10:32:04.049Z,0.23
2018-02-27T10:34:31.507Z,1.01
2018-02-27T10:36:59.086Z,0.22
2018-02-27T10:39:26.549Z,-0.56
2018-02-27T10:41:54.062Z,-0.57
2018-02-27T10:44:21.575Z,-0.71
2018-02-27T10:46:49.048Z,-0.78
2018-02-27T10:49:16.516Z,-0.13
2018-02-27T10:51:43.989Z,-0.07
2018-02-27T10:54:11.483Z,0.94
2018-02-27T10:56:38.998Z,0.38
2018-02-27T10:59:06.455Z,0.09
2018-02-27T11:01:33.912Z,-0.17
2018-02-27T11:04:01.389Z,-0.49
2018-02-27T11:06:28.850Z,-0.76
2018-02-27T11:08:56.330Z,-1.06
2018-02-27T11:11:23.893Z,-0.41
2018-02-27T11:13:51.414Z,-0.20
2018-02-27T11:16:18.876Z,-0.01
2018-02-27T11:18:46.385Z,-0.59
2018-02-27T11:21:13.856Z,-0.51
2018-02-27T11:23:41.447Z,-0.54
2018-02-27T11:26:08.999Z,-1.23
2018-02-27T11:28:36.472Z,-0.22
2018-02-27T11:31:03.961Z,-0.08
2018-02-27T11:33:31.466Z,0.50
2018-02-27T11:35:58.922Z,1.06
2018-02-27T11:38:26.380Z,0.62
2018-02-27T11:40:53.856Z,1.00
2018-02-27T11:43:21.333Z,0.43
2018-02-27T11:45:48.815Z,0.09
2018-02-27T11:48:16.269Z,0.43
2018-02-27T11:50:43.744Z,-0.09
2018-02-27T11:53:11.197Z,0.49
2018-02-27T11:55:38.658Z,0.94
2018-02-27T11:58:06.118Z,1.38
2018-02-27T12:00:33.583Z,1.63
2018-02-27T12:03:01.044Z,1.53
2018-02-27T12:05:28.530Z,1.26
2018-02-27T12:07:56.011Z,1.31
2018-02-27T12:10:23.489Z,1.25
2018-02-27T12:12:50.982Z,0.27
2018-02-27T12:15:18.525Z,0.48
2018-02-27T12:17:46.101Z,1.48
2018-02-27T12:20:13.639Z,1.80
2018-02-27T12:22:41.137Z,2.24
2018-02-27T12:25:08.591Z,1.97
2018-02-27T12:27:36.086Z,1.63
2018-02-27T12:30:03.548Z,1.05
2018-02-27T12:32:31.068Z,1.16
2018-02-27T12:34:58.527Z,1.45
2018-02-27T12:37:25.991Z,1.24
2018-02-27T12:39:53.463Z,1.50
2018-02-27T12:42:20.940Z,1.85
2018-02-27T12:44:48.584Z,1.52
2018-02-27T12:47:16.056Z,1.74
2018-02-27T12:49:43.641Z,2.39
2018-02-27T12:52:11.101Z,2.03
2018-02-27T12:54:38.587Z,1.83
2018-02-27T12:57:06.135Z,0.97
2018-02-27T12:59:33.627Z,1.35
2018-02-27T13:02:01.179Z,1.36
2018-02-27T13:04:28.661Z,1.25
2018-02-27T13:06:56.130Z,1.21
2018-02-27T13:09:23.590Z,1.11
2018-02-27T13:11:51.107Z,1.47
2018-02-27T13:14:18.567Z,1.61
2018-02-27T13:16:46.112Z,0.65
2018-02-27T13:19:13.587Z,0.52
2018-02-27T13:21:41.644Z,1.12
2018-02-27T13:24:09.129Z,0.60
2018-02-27T13:26:36.614Z,0.83
2018-02-27T13:29:04.113Z,0.00
2018-02-27T13:31:31.549Z,-0.04
2018-02-27T13:33:59.094Z,0.54
2018-02-27T13:36:26.599Z,0.60
2018-02-27T13:38:54.169Z,1.44
2018-02-27T13:41:21.637Z,1.24
2018-02-27T13:43:49.128Z,0.77
2018-02-27T13:46:16.598Z,0.86
2018-02-27T13:50:30.186Z,0.48
2018-02-27T13:52:58.529Z,0.25
2018-02-27T13:55:26.958Z,-0.47
2018-02-27T13:57:55.345Z,-0.36
2018-02-27T14:00:23.712Z,-0.03
2018-02-27T14:02:52.118Z,0.64
2018-02-27T14:05:20.425Z,1.18
2018-02-27T14:07:48.769Z,0.74
2018-02-27T14:10:17.187Z,0.54
2018-02-27T14:12:45.500Z,0.27
2018-02-27T14:15:14.003Z,0.46
2018-02-27T14:17:42.317Z,-0.33
2018-02-27T14:20:10.675Z,0.12
2018-02-27T14:22:38.983Z,-0.06
2018-02-27T14:25:07.323Z,-0.42
2018-02-27T14:27:35.650Z,-0.24
2018-02-27T14:30:03.984Z,-0.28
2018-02-27T14:32:32.330Z,-0.57
2018-02-27T14:35:00.698Z,-0.78
2018-02-27T14:37:29.010Z,-0.80
2018-02-27T14:39:57.354Z,-1.09
2018-02-27T14:42:25.934Z,-1.25
2018-02-27T14:44:54.279Z,-0.92
2018-02-27T14:47:22.605Z,-0.58
2018-02-27T14:49:50.918Z,-0.47
2018-02-27T14:52:19.279Z,-0.07
2018-02-27T14:54:47.634Z,-0.02
2018-02-27T14:57:15.972Z,0.15
2018-02-27T14:59:44.290Z,-0.32
2018-02-27T15:02:12.613Z,-0.85
2018-02-27T15:04:41.004Z,-0.36
2018-02-27T15:07:09.384Z,-0.33
2018-02-27T15:09:37.756Z,-0.87
2018-02-27T15:12:06.129Z,-1.25
2018-02-27T15:14:34.430Z,-1.28
2018-02-27T15:17:02.758Z,-1.30
2018-02-27T15:19:31.079Z,-1.72
2018-02-27T15:21:59.437Z,-2.18
2018-02-27T15:24:27.785Z,-2.31
2018-02-27T15:26:56.101Z,-2.27
2018-02-27T15:29:24.445Z,-2.42
2018-02-27T15:31:52.776Z,-2.21
2018-02-27T15:34:21.207Z,-2.21
2018-02-27T15:36:49.588Z,-2.08
2018-02-27T15:39:17.994Z,-2.22
2018-02-27T15:41:46.335Z,-2.26
2018-02-27T15:44:14.769Z,-2.38
2018-02-27T15:46:43.094Z,-2.56
2018-02-27T15:49:11.561Z,-2.85
2018-02-27T15:51:39.891Z,-3.10
2018-02-27T15:54:08.292Z,-3.61
2018-02-27T15:56:37.026Z,-3.71
2018-02-27T15:59:05.339Z,-3.79
2018-02-27T16:01:33.742Z,-4.02
2018-02-27T16:04:02.072Z,-4.06
2018-02-27T16:06:30.440Z,-4.16
2018-02-27T16:08:58.765Z,-4.30
2018-02-27T16:11:27.164Z,-4.50
2018-02-27T16:13:55.567Z,-4.48
2018-02-27T16:16:23.882Z,-4.59
2018-02-27T16:18:52.256Z,-4.58
2018-02-27T16:21:20.578Z,-4.62
2018-02-27T16:23:48.910Z,-4.75
2018-02-27T16:26:17.230Z,-4.75
2018-02-27T16:28:45.655Z,-4.90
2018-02-27T16:31:13.976Z,-4.85
2018-02-27T16:33:42.439Z,-4.95
2018-02-27T16:36:10.840Z,-4.95
2018-02-27T16:38:39.256Z,-4.93
2018-02-27T16:41:07.624Z,-5.00
2018-02-27T16:43:36.018Z,-5.15
2018-02-27T16:46:04.358Z,-5.24
2018-02-27T16:48:32.806Z,-5.28
2018-02-27T16:51:01.161Z,-5.45
2018-02-27T16:53:29.578Z,-5.49
2018-02-27T16:55:57.942Z,-5.48
2018-02-27T16:58:26.377Z,-5.51
2018-02-27T17:00:54.718Z,-5.55
2018-02-27T17:03:23.049Z,-5.57
2018-02-27T17:05:51.467Z,-5.58
2018-02-27T17:08:19.847Z,-5.64
2018-02-27T17:10:48.336Z,-5.70
2018-02-27T17:13:16.724Z,-5.79
2018-02-27T17:15:45.208Z,-5.85
2018-02-27T17:18:13.606Z,-5.86
2018-02-27T17:20:42.000Z,-5.94
2018-02-27T17:23:10.385Z,-5.93
2018-02-27T17:25:38.725Z,-5.95
2018-02-27T17:28:07.070Z,-6.01
2018-02-27T17:30:35.406Z,-6.08
2018-02-27T17:33:03.762Z,-6.09
2018-02-27T17:35:32.143Z,-6.12
2018-02-27T17:38:00.542Z,-6.18
2018-02-27T17:40:28.929Z,-6.23
2018-02-27T17:42:57.346Z,-6.25
2018-02-27T17:45:25.676Z,-6.32
2018-02-27T17:47:54.013Z,-6.33
2018-02-27T17:50:22.388Z,-6.41
2018-02-27T17:52:50.733Z,-6.39
2018-02-27T17:55:19.067Z,-6.39
2018-02-27T17:57:47.494Z,-6.46
2018-02-27T18:00:15.813Z,-6.52
2018-02-27T18:02:44.207Z,-6.62
2018-02-27T18:05:12.530Z,-6.59
2018-02-27T18:07:40.856Z,-6.59
2018-02-27T18:10:11.078Z,-6.67
2018-02-27T18:12:40.839Z,-6.70
2018-02-27T18:15:09.171Z,-6.68
2018-02-27T18:17:39.273Z,-6.69
2018-02-27T18:20:07.600Z,-6.74
2018-02-27T18:22:35.928Z,-6.79
2018-02-27T18:25:04.518Z,-6.81
2018-02-27T18:27:32.841Z,-6.88
2018-02-27T18:30:01.208Z,-6.93
2018-02-27T18:32:31.171Z,-6.92
2018-02-27T18:34:59.602Z,-6.96
2018-02-27T18:37:27.968Z,-6.98
2018-02-27T18:39:56.420Z,-7.00
2018-02-27T18:42:24.771Z,-7.03
2018-02-27T18:44:53.117Z,-7.07
2018-02-27T18:47:21.524Z,-7.11
2018-02-27T18:49:49.958Z,-7.13
2018-02-27T18:52:18.394Z,-7.17
2018-02-27T18:54:46.721Z,-7.17
2018-02-27T18:57:15.054Z,-7.17
2018-02-27T18:59:43.444Z,-7.23
2018-02-27T19:02:11.796Z,-7.22
2018-02-27T19:04:40.146Z,-7.20
2018-02-27T19:07:08.516Z,-7.21
2018-02-27T19:09:36.879Z,-7.19
2018-02-27T19:12:05.225Z,-7.16
2018-02-27T19:14:33.561Z,-7.21
2018-02-27T19:17:01.908Z,-7.21
2018-02-27T19:19:30.261Z,-7.25
2018-02-27T19:21:58.605Z,-7.28
2018-02-27T19:24:26.976Z,-7.30
2018-02-27T19:26:55.294Z,-7.33
2018-02-27T19:29:23.661Z,-7.32
2018-02-27T19:31:52.013Z,-7.35
2018-02-27T19:34:20.478Z,-7.43
2018-02-27T19:36:48.840Z,-7.35
2018-02-27T19:39:17.322Z,-7.40
2018-02-27T19:41:45.659Z,-7.39
2018-02-27T19:44:14.101Z,-7.34
2018-02-27T19:46:42.470Z,-7.36
2018-02-27T19:49:11.132Z,-7.32
2018-02-27T19:51:39.664Z,-7.28
2018-02-27T19:54:07.988Z,-7.23
2018-02-27T19:56:36.734Z,-7.27
2018-02-27T19:59:05.110Z,-7.19
2018-02-27T20:01:33.511Z,-7.22
2018-02-27T20:04:01.854Z,-7.23
2018-02-27T20:06:30.224Z,-7.36
2018-02-27T20:08:58.620Z,-7.32
2018-02-27T20:11:27.078Z,-7.32
2018-02-27T20:13:55.507Z,-7.32
2018-02-27T20:16:24.173Z,-7.33
2018-02-27T20:18:52.617Z,-7.31
2018-02-27T20:21:21.011Z,-7.31
2018-02-27T20:26:51.613Z,-7.34
2018-02-27T20:29:21.357Z,-7.37
2018-02-27T20:31:49.854Z,-7.32
2018-02-27T20:34:18.180Z,-7.31
2018-02-27T20:36:46.538Z,-7.24
2018-02-27T20:39:20.603Z,-7.20
2018-02-27T20:41:48.949Z,-7.21
2018-02-27T20:44:17.302Z,-7.27
2018-02-27T20:46:45.654Z,-7.28
2018-02-27T20:49:14.054Z,-7.27
2018-02-27T20:51:42.400Z,-7.27
2018-02-27T20:54:10.835Z,-7.40
2018-02-27T20:56:39.168Z,-7.43
2018-02-27T20:59:07.637Z,-7.37
2018-02-27T21:01:36.067Z,-7.39
2018-02-27T21:04:04.417Z,-7.32
2018-02-27T21:06:32.764Z,-7.32
2018-02-27T21:09:01.126Z,-7.32
2018-02-27T21:11:29.498Z,-7.29
2018-02-27T21:13:57.841Z,-7.32
2018-02-27T21:16:26.231Z,-7.28
2018-02-27T21:18:54.677Z,-7.31
2018-02-27T21:21:23.012Z,-7.29
2018-02-27T21:23:51.390Z,-7.44
2018-02-27T21:26:19.859Z,-7.46
2018-02-27T21:28:48.212Z,-7.35
2018-02-27T21:31:16.626Z,-7.37
2018-02-27T21:33:44.971Z,-7.43
2018-02-27T21:36:13.331Z,-7.40
2018-02-27T21:38:41.660Z,-7.37
2018-02-27T21:41:09.976Z,-7.43
2018-02-27T21:43:38.377Z,-7.52
2018-02-27T21:46:06.711Z,-7.54
2018-02-27T21:48:35.210Z,-7.59
2018-02-27T21:51:03.575Z,-7.69
2018-02-27T21:53:31.942Z,-7.71
2018-02-27T21:56:00.292Z,-7.69
2018-02-27T21:58:28.644Z,-7.75
2018-02-27T22:00:57.050Z,-7.81
2018-02-27T22:03:25.435Z,-7.88
2018-02-27T22:05:53.796Z,-7.91
2018-02-27T22:08:22.207Z,-7.96
2018-02-27T22:10:50.576Z,-8.15
2018-02-27T22:13:19.020Z,-8.26
2018-02-27T22:15:47.352Z,-8.38
2018-02-27T22:18:15.694Z,-8.47
2018-02-27T22:20:44.084Z,-8.52
2018-02-27T22:23:12.422Z,-8.53
2018-02-27T22:25:40.847Z,-8.54
2018-02-27T22:28:09.186Z,-8.57
2018-02-27T22:30:37.543Z,-8.62
2018-02-27T22:33:05.878Z,-8.71
2018-02-27T22:35:34.238Z,-8.74
2018-02-27T22:38:02.582Z,-8.81
2018-02-27T22:40:30.931Z,-8.84
2018-02-27T22:42:59.261Z,-8.85
2018-02-27T22:45:27.633Z,-8.93
2018-02-27T22:47:55.969Z,-8.95
2018-02-27T22:50:24.359Z,-8.98
2018-02-27T22:52:52.762Z,-8.98
2018-02-27T22:55:21.145Z,-9.03
2018-02-27T22:57:49.492Z,-9.06
2018-02-27T23:00:29.597Z,-9.13
2018-02-27T23:02:58.003Z,-9.12
2018-02-27T23:05:26.351Z,-9.15
2018-02-27T23:07:54.791Z,-9.23
2018-02-27T23:10:23.136Z,-9.23
2018-02-27T23:12:51.531Z,-9.25
2018-02-27T23:15:19.859Z,-9.33
2018-02-27T23:17:48.205Z,-9.33
2018-02-27T23:20:16.544Z,-9.33
2018-02-27T23:22:44.895Z,-9.39
2018-02-27T23:25:14.301Z,-9.39
2018-02-27T23:27:43.034Z,-9.48
2018-02-27T23:30:13.532Z,-9.49
2018-02-27T23:32:43.675Z,-9.53
2018-02-27T23:35:12.940Z,-9.57
2018-02-27T23:37:41.276Z,-9.62
2018-02-27T23:40:09.617Z,-9.62
2018-02-27T23:42:38.006Z,-9.64
2018-02-27T23:45:06.365Z,-9.68
2018-02-27T23:47:34.685Z,-9.72
2018-02-27T23:50:03.036Z,-9.75
2018-02-27T23:52:31.373Z,-9.83
2018-02-27T23:54:59.768Z,-9.85
2018-02-27T23:57:28.153Z,-9.88
2018-02-27T23:59:56.549Z,-9.85
